createdAt,value
2022-11-21T00:01:28.029Z,97493.88
2022-11-21T00:03:56.586Z,97498.41
2022-11-21T00:06:27.065Z,97503.78
2022-11-21T00:08:56.905Z,97502.75
2022-11-21T00:11:25.344Z,97486.03
2022-11-21T00:13:53.848Z,97480.66
2022-11-21T00:16:22.395Z,97470.72
2022-11-21T00:18:50.888Z,97467.00
2022-11-21T00:21:20.561Z,97456.66
2022-11-21T00:23:50.435Z,97459.34
2022-11-21T00:26:19.028Z,97463.72
2022-11-21T00:28:47.632Z,97456.66
2022-11-21T00:31:23.542Z,97466.56
2022-11-21T00:33:52.161Z,97469.28
2022-11-21T00:36:20.582Z,97463.06
2022-11-21T00:38:50.390Z,97455.00
2022-11-21T00:41:18.818Z,97446.97
2022-11-21T00:43:47.388Z,97442.59
2022-11-21T00:46:15.789Z,97451.69
2022-11-21T00:48:44.364Z,97439.09
2022-11-21T00:51:12.867Z,97436.41
2022-11-21T00:53:41.882Z,97432.88
2022-11-21T00:56:11.715Z,97428.34
2022-11-21T00:58:40.188Z,97434.75
2022-11-21T01:01:11.047Z,97442.81
2022-11-21T01:03:39.565Z,97441.13
2022-11-21T01:06:09.332Z,97436.63
2022-11-21T01:08:39.316Z,97433.94
2022-11-21T01:11:09.071Z,97425.88
2022-11-21T01:13:38.871Z,97427.69
2022-11-21T01:16:07.599Z,97422.53
2022-11-21T01:18:36.032Z,97426.88
2022-11-21T01:21:05.320Z,97421.50
2022-11-21T01:23:33.773Z,97416.97
2022-11-21T01:26:05.355Z,97412.81
2022-11-21T01:28:34.058Z,97409.94
2022-11-21T01:31:07.748Z,97401.06
2022-11-21T01:33:36.428Z,97406.44
2022-11-21T01:36:10.200Z,97400.22
2022-11-21T01:38:38.836Z,97403.09
2022-11-21T01:41:07.503Z,97405.78
2022-11-21T01:43:36.005Z,97404.75
2022-11-21T01:46:10.521Z,97399.59
2022-11-21T01:48:41.634Z,97407.44
2022-11-21T01:51:15.364Z,97406.63
2022-11-21T01:53:44.273Z,97403.09
2022-11-21T01:56:12.753Z,97405.78
2022-11-21T01:58:41.231Z,97404.16
2022-11-21T02:01:11.190Z,97398.56
2022-11-21T02:03:39.967Z,97397.94
2022-11-21T02:06:08.585Z,97401.47
2022-11-21T02:08:37.077Z,97395.25
2022-11-21T02:11:15.626Z,97397.94
2022-11-21T02:13:44.360Z,97407.84
2022-11-21T02:16:14.231Z,97406.84
2022-11-21T02:18:42.655Z,97398.78
2022-11-21T02:21:17.981Z,97390.06
2022-11-21T02:23:50.593Z,97394.41
2022-11-21T02:26:20.429Z,97392.59
2022-11-21T02:28:48.912Z,97390.91
2022-11-21T02:31:17.336Z,97393.59
2022-11-21T02:33:45.850Z,97390.91
2022-11-21T02:36:40.309Z,97385.75
2022-11-21T02:39:10.329Z,97379.34
2022-11-21T02:41:43.063Z,97382.84
2022-11-21T02:44:17.276Z,97373.16
2022-11-21T02:46:49.317Z,97364.25
2022-11-21T02:49:20.033Z,97365.91
2022-11-21T02:51:48.746Z,97373.97
2022-11-21T02:54:17.423Z,97372.94
2022-11-21T02:56:47.243Z,97381.19
2022-11-21T02:59:15.713Z,97379.34
2022-11-21T03:01:44.235Z,97381.19
2022-11-21T03:04:12.648Z,97377.69
2022-11-21T03:06:41.188Z,97388.44
2022-11-21T03:09:09.845Z,97380.38
2022-11-21T03:11:38.327Z,97372.31
2022-11-21T03:14:08.277Z,97365.28
2022-11-21T03:16:36.739Z,97372.31
2022-11-21T03:19:05.348Z,97361.75
2022-11-21T03:21:33.891Z,97360.72
2022-11-21T03:24:02.328Z,97355.56
2022-11-21T03:26:30.823Z,97354.53
2022-11-21T03:28:59.243Z,97342.97
2022-11-21T03:31:29.061Z,97343.78
2022-11-21T03:33:57.526Z,97343.78
2022-11-21T03:36:26.140Z,97341.31
2022-11-21T03:38:56.131Z,97344.84
2022-11-21T03:41:30.875Z,97346.69
2022-11-21T03:44:02.161Z,97338.63
2022-11-21T03:46:33.132Z,97335.94
2022-11-21T03:49:01.593Z,97341.31
2022-11-21T03:51:30.190Z,97332.41
2022-11-21T03:53:58.807Z,97329.72
2022-11-21T03:56:27.434Z,97321.66
2022-11-21T03:58:56.001Z,97310.94
2022-11-21T04:01:26.391Z,97303.72
2022-11-21T04:03:56.215Z,97306.59
2022-11-21T04:06:24.820Z,97309.91
2022-11-21T04:08:53.415Z,97304.75
2022-11-21T04:11:23.725Z,97302.06
2022-11-21T04:13:52.187Z,97291.53
2022-11-21T04:16:20.686Z,97298.53
2022-11-21T04:18:49.139Z,97282.44
2022-11-21T04:21:18.970Z,97282.44
2022-11-21T04:23:47.425Z,97277.06
2022-11-21T04:26:17.024Z,97278.94
2022-11-21T04:28:45.635Z,97277.06
2022-11-21T04:31:14.395Z,97270.06
2022-11-21T04:33:43.057Z,97264.03
2022-11-21T04:36:11.482Z,97256.63
2022-11-21T04:38:41.253Z,97261.16
2022-11-21T04:43:37.891Z,97266.50
2022-11-21T04:48:34.557Z,97253.94
2022-11-21T04:51:02.989Z,97261.16
2022-11-21T04:53:31.455Z,97259.31
2022-11-21T05:00:58.143Z,97245.25
2022-11-21T05:03:26.612Z,97242.34
2022-11-21T05:05:55.096Z,97238.84
2022-11-21T05:08:23.567Z,97234.50
2022-11-21T05:11:09.663Z,97231.81
2022-11-21T05:13:39.418Z,97236.97
2022-11-21T05:16:08.143Z,97233.69
2022-11-21T05:18:36.668Z,97221.09
2022-11-21T05:21:05.277Z,97214.06
2022-11-21T05:23:33.764Z,97218.59
2022-11-21T05:26:02.293Z,97214.06
2022-11-21T05:28:30.760Z,97207.84
2022-11-21T05:31:00.545Z,97211.38
2022-11-21T05:33:29.005Z,97207.84
2022-11-21T05:35:57.460Z,97212.41
2022-11-21T05:38:25.915Z,97207.03
2022-11-21T05:40:54.478Z,97205.38
2022-11-21T05:43:40.658Z,97214.25
2022-11-21T05:46:10.634Z,97213.44
2022-11-21T05:48:40.239Z,97209.72
2022-11-21T05:51:08.921Z,97220.69
2022-11-21T05:53:37.374Z,97234.91
2022-11-21T05:56:07.520Z,97236.78
2022-11-21T05:58:35.972Z,97235.75
2022-11-21T06:01:05.120Z,97247.31
2022-11-21T06:03:35.857Z,97237.59
2022-11-21T06:06:06.889Z,97241.28
2022-11-21T06:08:36.743Z,97228.50
2022-11-21T06:11:05.578Z,97230.56
2022-11-21T06:13:34.473Z,97225.19
2022-11-21T06:16:04.416Z,97217.13
2022-11-21T06:18:35.199Z,97215.31
2022-11-21T06:21:04.565Z,97216.13
2022-11-21T06:23:33.008Z,97216.13
2022-11-21T06:26:03.444Z,97216.13
2022-11-21T06:28:33.691Z,97221.50
2022-11-21T06:31:04.911Z,97215.91
2022-11-21T06:33:34.969Z,97217.78
2022-11-21T06:36:04.460Z,97208.06
2022-11-21T06:38:33.030Z,97203.53
2022-11-21T06:41:06.134Z,97205.38
2022-11-21T06:43:34.590Z,97198.78
2022-11-21T06:48:34.072Z,97206.22
2022-11-21T06:51:06.455Z,97206.44
2022-11-21T06:53:37.570Z,97204.38
2022-11-21T06:56:06.446Z,97208.72
2022-11-21T06:58:35.005Z,97210.34
2022-11-21T07:01:06.536Z,97204.56
2022-11-21T07:03:37.753Z,97199.84
2022-11-21T07:06:06.767Z,97196.69
2022-11-21T07:08:36.397Z,97186.59
2022-11-21T07:13:54.839Z,97197.13
2022-11-21T07:16:26.177Z,97188.47
2022-11-21T07:18:56.334Z,97181.84
2022-11-21T07:21:24.783Z,97183.50
2022-11-21T07:23:53.381Z,97187.63
2022-11-21T07:26:21.983Z,97185.78
2022-11-21T07:28:50.418Z,97186.81
2022-11-21T07:31:19.073Z,97183.09
2022-11-21T07:33:48.311Z,97195.69
2022-11-21T07:36:18.200Z,97192.78
2022-11-21T07:38:47.819Z,97187.22
2022-11-21T07:41:16.297Z,97186.59
2022-11-21T07:43:45.855Z,97184.72
2022-11-21T07:46:14.445Z,97183.72
2022-11-21T07:48:44.219Z,97182.03
2022-11-21T07:51:12.664Z,97175.66
2022-11-21T07:53:42.578Z,97176.50
2022-11-21T07:56:11.058Z,97169.47
2022-11-21T07:58:40.657Z,97173.81
2022-11-21T08:01:09.354Z,97164.94
2022-11-21T08:03:37.834Z,97169.25
2022-11-21T08:06:06.526Z,97172.75
2022-11-21T08:08:35.002Z,97164.94
2022-11-21T08:11:07.486Z,97160.38
2022-11-21T08:13:39.141Z,97164.72
2022-11-21T08:16:08.161Z,97157.50
2022-11-21T08:18:36.670Z,97161.84
2022-11-21T08:21:05.915Z,97154.81
2022-11-21T08:23:36.476Z,97159.97
2022-11-21T08:26:10.051Z,97159.97
2022-11-21T08:28:39.451Z,97162.66
2022-11-21T08:31:11.320Z,97164.53
2022-11-21T08:33:39.844Z,97163.69
2022-11-21T08:36:09.243Z,97175.25
2022-11-21T08:38:37.827Z,97179.59
2022-11-21T08:41:25.388Z,97171.75
2022-11-21T08:43:53.875Z,97169.88
2022-11-21T08:46:22.364Z,97175.25
2022-11-21T08:48:51.617Z,97179.81
2022-11-21T08:51:20.267Z,97171.53
2022-11-21T08:53:49.770Z,97170.72
2022-11-21T08:56:19.953Z,97170.94
2022-11-21T08:58:48.447Z,97171.75
2022-11-21T09:01:17.013Z,97173.63
2022-11-21T09:03:45.607Z,97166.38
2022-11-21T09:06:14.211Z,97166.38
2022-11-21T09:08:42.701Z,97163.69
2022-11-21T09:11:11.541Z,97162.03
2022-11-21T09:13:41.479Z,97156.06
2022-11-21T09:16:30.276Z,97162.44
2022-11-21T09:18:58.943Z,97156.88
2022-11-21T09:21:27.467Z,97154.19
2022-11-21T09:23:55.929Z,97149.63
2022-11-21T09:26:24.478Z,97150.28
2022-11-21T09:28:54.391Z,97152.72
2022-11-21T09:31:22.879Z,97151.72
2022-11-21T09:33:54.977Z,97151.72
2022-11-21T09:36:23.746Z,97147.19
2022-11-21T09:38:54.005Z,97142.63
2022-11-21T09:41:45.902Z,97142.63
2022-11-21T09:44:21.473Z,97134.56
2022-11-21T09:46:50.563Z,97137.88
2022-11-21T09:49:19.102Z,97135.19
2022-11-21T09:51:47.575Z,97124.47
2022-11-21T09:54:19.607Z,97129.00
2022-11-21T09:56:48.054Z,97133.53
2022-11-21T09:59:30.235Z,97129.81
2022-11-21T10:01:58.770Z,97134.38
2022-11-21T10:04:27.972Z,97126.31
2022-11-21T10:07:03.287Z,97122.78
2022-11-21T10:09:53.982Z,97124.47
2022-11-21T10:12:38.744Z,97127.97
2022-11-21T10:15:28.167Z,97126.09
2022-11-21T10:18:14.846Z,97115.59
2022-11-21T10:20:54.151Z,97124.47
2022-11-21T10:23:36.690Z,97116.59
2022-11-21T10:26:17.212Z,97112.91
2022-11-21T10:28:52.660Z,97108.34
2022-11-21T10:31:23.056Z,97117.41
2022-11-21T10:33:51.700Z,97116.41
2022-11-21T10:36:28.012Z,97112.66
2022-11-21T10:39:01.023Z,97111.66
2022-11-21T10:41:41.652Z,97106.47
2022-11-21T10:44:42.055Z,97109.16
2022-11-21T10:47:28.433Z,97109.16
2022-11-21T10:50:04.605Z,97109.16
2022-11-21T10:52:35.403Z,97101.09
2022-11-21T10:55:10.202Z,97112.66
2022-11-21T10:57:42.295Z,97115.59
2022-11-21T11:00:23.538Z,97109.16
2022-11-21T11:03:06.537Z,97112.66
2022-11-21T11:05:36.781Z,97113.72
2022-11-21T11:08:08.725Z,97105.66
2022-11-21T11:10:38.470Z,97108.34
2022-11-21T11:13:49.444Z,97105.66
2022-11-21T11:16:21.619Z,97102.97
2022-11-21T11:18:58.670Z,97111.84
2022-11-21T11:21:28.545Z,97111.84
2022-11-21T11:24:20.415Z,97103.78
2022-11-21T11:26:53.793Z,97107.53
2022-11-21T11:29:23.524Z,97101.31
2022-11-21T11:31:55.887Z,97099.66
2022-11-21T11:34:27.343Z,97099.66
2022-11-21T11:36:57.947Z,97095.94
2022-11-21T11:39:38.280Z,97098.84
2022-11-21T11:43:04.899Z,97096.97
2022-11-21T11:46:27.342Z,97098.84
2022-11-21T11:51:52.598Z,97098.03
2022-11-21T11:54:23.330Z,97098.22
2022-11-21T11:56:52.042Z,97098.03
2022-11-21T11:59:23.721Z,97099.03
2022-11-21T12:01:55.051Z,97103.38
2022-11-21T12:04:25.155Z,97101.72
2022-11-21T12:09:49.878Z,97099.25
2022-11-21T12:12:22.894Z,97094.69
2022-11-21T12:15:20.900Z,97090.16
2022-11-21T12:17:54.004Z,97093.66
2022-11-21T12:20:24.490Z,97096.56
2022-11-21T12:22:54.496Z,97088.91
2022-11-21T12:25:26.673Z,97096.97
2022-11-21T12:27:56.314Z,97103.78
2022-11-21T12:30:48.691Z,97090.56
2022-11-21T12:33:22.165Z,97086.63
2022-11-21T12:36:19.096Z,97088.50
2022-11-21T12:39:30.763Z,97079.00
2022-11-21T12:42:19.123Z,97081.50
2022-11-21T12:45:03.144Z,97078.81
2022-11-21T12:48:09.696Z,97081.50
2022-11-21T12:51:00.320Z,97082.31
2022-11-21T12:53:49.218Z,97076.94
2022-11-21T12:56:24.168Z,97077.75
2022-11-21T12:58:52.665Z,97075.06
2022-11-21T13:01:25.322Z,97082.13
2022-11-21T13:03:59.986Z,97077.75
2022-11-21T13:06:29.867Z,97077.75
2022-11-21T13:08:59.524Z,97081.06
2022-11-21T13:12:08.692Z,97082.13
2022-11-21T13:14:43.448Z,97081.06
2022-11-21T13:17:29.286Z,97075.69
2022-11-21T13:19:59.244Z,97080.25
2022-11-21T13:22:54.388Z,97083.75
2022-11-21T13:25:40.805Z,97083.75
2022-11-21T13:28:33.924Z,97083.75
2022-11-21T13:31:03.960Z,97086.44
2022-11-21T13:33:57.103Z,97086.88
2022-11-21T13:36:44.236Z,97089.94
2022-11-21T13:39:35.424Z,97076.75
2022-11-21T13:42:29.476Z,97082.13
2022-11-21T13:44:59.544Z,97084.81
2022-11-21T13:48:20.259Z,97083.13
2022-11-21T13:51:31.331Z,97087.69
2022-11-21T13:54:58.364Z,97093.06
2022-11-21T13:57:49.785Z,97088.50
2022-11-21T14:00:32.392Z,97084.38
2022-11-21T14:03:31.594Z,97087.69
2022-11-21T14:06:37.430Z,97089.31
2022-11-21T14:09:23.000Z,97089.13
2022-11-21T14:11:52.609Z,97090.19
2022-11-21T14:14:34.776Z,97089.31
2022-11-21T14:17:30.091Z,97093.88
2022-11-21T14:20:00.722Z,97093.88
2022-11-21T14:22:39.806Z,97091.19
2022-11-21T14:25:16.734Z,97095.53
2022-11-21T14:27:47.969Z,97093.06
2022-11-21T14:30:37.073Z,97100.06
2022-11-21T14:33:34.479Z,97097.19
2022-11-21T14:36:08.027Z,97100.91
2022-11-21T14:38:42.810Z,97098.00
2022-11-21T14:41:31.792Z,97098.00
2022-11-21T14:44:15.186Z,97105.88
2022-11-21T14:46:44.084Z,97111.03
2022-11-21T14:49:34.813Z,97108.97
2022-11-21T14:52:19.826Z,97110.00
2022-11-21T14:57:42.710Z,97105.66
2022-11-21T15:03:05.471Z,97107.50
2022-11-21T15:11:13.997Z,97112.88
2022-11-21T15:14:12.154Z,97109.38
2022-11-21T15:16:31.222Z,97119.31
2022-11-21T15:18:59.709Z,97113.72
2022-11-21T15:21:29.751Z,97120.75
2022-11-21T15:23:58.287Z,97110.19
2022-11-21T15:26:31.584Z,97109.19
2022-11-21T15:29:01.119Z,97118.25
2022-11-21T15:31:29.591Z,97113.94
2022-11-21T15:34:33.217Z,97119.94
2022-11-21T15:37:05.726Z,97123.63
2022-11-21T15:39:34.504Z,97119.06
2022-11-21T15:42:37.169Z,97115.78
2022-11-21T15:45:25.540Z,97121.16
2022-11-21T15:47:55.704Z,97107.50
2022-11-21T15:50:25.093Z,97113.94
2022-11-21T15:52:57.345Z,97119.06
2022-11-21T15:55:29.438Z,97117.25
2022-11-21T15:57:58.090Z,97120.75
2022-11-21T16:00:26.606Z,97111.88
2022-11-21T16:02:55.328Z,97112.88
2022-11-21T16:05:24.987Z,97116.63
2022-11-21T16:07:54.941Z,97118.25
2022-11-21T16:10:27.742Z,97101.31
2022-11-21T16:12:57.752Z,97106.88
2022-11-21T16:15:26.275Z,97107.94
2022-11-21T16:17:54.965Z,97102.56
2022-11-21T16:20:23.493Z,97099.69
2022-11-21T16:22:54.071Z,97097.00
2022-11-21T16:25:22.564Z,97106.69
2022-11-21T16:27:52.942Z,97109.19
2022-11-21T16:30:21.686Z,97104.63
2022-11-21T16:32:51.377Z,97103.81
2022-11-21T16:35:19.905Z,97101.94
2022-11-21T16:37:48.489Z,97102.78
2022-11-21T16:40:18.864Z,97112.47
2022-11-21T16:42:47.308Z,97111.47
2022-11-21T16:45:15.954Z,97104.41
2022-11-21T16:47:48.725Z,97108.78
2022-11-21T16:50:18.467Z,97108.78
2022-11-21T16:52:46.945Z,97112.28
2022-11-21T16:55:17.025Z,97105.03
2022-11-21T16:57:45.546Z,97104.00
2022-11-21T17:00:15.210Z,97113.72
2022-11-21T17:02:43.705Z,97112.91
2022-11-21T17:05:12.235Z,97113.72
2022-11-21T17:07:40.862Z,97111.03
2022-11-21T17:10:10.365Z,97111.88
2022-11-21T17:12:40.456Z,97113.50
2022-11-21T17:15:10.886Z,97108.34
2022-11-21T17:17:39.501Z,97117.03
2022-11-21T17:20:09.989Z,97107.94
2022-11-21T17:22:38.389Z,97115.00
2022-11-21T17:25:08.231Z,97112.09
2022-11-21T17:27:36.694Z,97111.28
2022-11-21T17:30:08.433Z,97115.63
2022-11-21T17:32:37.415Z,97129.88
2022-11-21T17:35:07.078Z,97118.94
2022-11-21T17:37:35.702Z,97121.63
2022-11-21T17:40:06.687Z,97122.44
2022-11-21T17:42:35.178Z,97123.25
2022-11-21T17:45:03.697Z,97126.34
2022-11-21T17:47:35.622Z,97132.34
2022-11-21T17:50:06.222Z,97126.75
2022-11-21T17:52:35.036Z,97128.63
2022-11-21T17:55:03.499Z,97125.31
2022-11-21T17:57:31.991Z,97131.53
2022-11-21T18:00:00.515Z,97133.38
2022-11-21T18:02:29.190Z,97135.47
2022-11-21T18:04:59.160Z,97134.63
2022-11-21T18:07:27.788Z,97133.78
2022-11-21T18:10:09.268Z,97146.41
2022-11-21T18:12:45.072Z,97137.69
2022-11-21T18:15:13.685Z,97134.81
2022-11-21T18:17:43.064Z,97140.19
2022-11-21T18:20:13.270Z,97135.47
2022-11-21T18:22:41.744Z,97145.53
2022-11-21T18:25:10.754Z,97143.53
2022-11-21T18:27:39.188Z,97141.25
2022-11-21T18:30:09.412Z,97134.41
2022-11-21T18:32:38.140Z,97140.84
2022-11-21T18:35:07.089Z,97133.59
2022-11-21T18:37:38.208Z,97138.97
2022-11-21T18:40:08.237Z,97139.78
2022-11-21T18:42:37.101Z,97145.97
2022-11-21T18:45:06.403Z,97138.16
2022-11-21T18:47:34.898Z,97135.47
2022-11-21T18:50:03.399Z,97142.69
2022-11-21T18:52:34.173Z,97144.53
2022-11-21T18:55:04.100Z,97146.41
2022-11-21T18:57:35.912Z,97147.22
2022-11-21T19:00:06.306Z,97145.53
2022-11-21T19:02:34.887Z,97145.53
2022-11-21T19:05:03.501Z,97155.91
2022-11-21T19:07:32.120Z,97151.78
2022-11-21T19:10:20.651Z,97152.78
2022-11-21T19:12:50.698Z,97162.06
2022-11-21T19:15:19.523Z,97164.75
2022-11-21T19:17:48.099Z,97169.09
2022-11-21T19:20:17.284Z,97166.19
2022-11-21T19:22:45.743Z,97170.53
2022-11-21T19:25:17.233Z,97167.00
2022-11-21T19:27:48.445Z,97164.31
2022-11-21T19:30:18.621Z,97166.00
2022-11-21T19:32:47.242Z,97166.19
2022-11-21T19:35:15.840Z,97175.06
2022-11-21T19:37:44.474Z,97176.94
2022-11-21T19:40:13.934Z,97176.75
2022-11-21T19:42:42.796Z,97174.88
2022-11-21T19:45:14.136Z,97171.56
2022-11-21T19:47:46.003Z,97171.56
2022-11-21T19:50:15.418Z,97176.09
2022-11-21T19:52:43.955Z,97173.22
2022-11-21T19:55:12.572Z,97182.94
2022-11-21T19:57:41.098Z,97182.31
2022-11-21T20:00:10.985Z,97192.25
2022-11-21T20:02:39.582Z,97190.81
2022-11-21T20:05:10.533Z,97189.75
2022-11-21T20:07:39.135Z,97194.94
2022-11-21T20:10:08.712Z,97197.00
2022-11-21T20:12:37.400Z,97200.50
2022-11-21T20:15:06.956Z,97193.25
2022-11-21T20:17:35.611Z,97200.50
2022-11-21T20:20:04.307Z,97204.84
2022-11-21T20:22:34.291Z,97204.00
2022-11-21T20:25:03.090Z,97204.84
2022-11-21T20:27:32.688Z,97209.38
2022-11-21T20:30:01.178Z,97212.88
2022-11-21T20:32:29.808Z,97205.88
2022-11-21T20:34:58.428Z,97205.06
2022-11-21T20:37:27.341Z,97208.75
2022-11-21T20:39:57.353Z,97214.13
2022-11-21T20:42:25.927Z,97209.78
2022-11-21T20:45:54.395Z,97208.16
2022-11-21T20:47:42.824Z,97204.00
2022-11-21T20:50:21.462Z,97205.88
2022-11-21T20:55:49.995Z,97203.59
2022-11-21T20:58:18.482Z,97201.72
2022-11-21T21:00:47.045Z,97211.66
2022-11-21T21:03:15.607Z,97212.47
2022-11-21T21:05:44.833Z,97211.66
2022-11-21T21:08:13.332Z,97218.66
2022-11-21T21:11:04.636Z,97212.47
2022-11-21T21:13:32.617Z,97207.09
2022-11-21T21:16:06.040Z,97208.75
2022-11-21T21:18:34.925Z,97215.78
2022-11-21T21:21:17.071Z,97203.38
2022-11-21T21:23:48.325Z,97201.72
2022-11-21T21:26:18.281Z,97208.75
2022-11-21T21:28:48.367Z,97208.75
2022-11-21T21:31:22.080Z,97207.94
2022-11-21T21:33:50.571Z,97207.09
2022-11-21T21:36:20.626Z,97202.56
2022-11-21T21:38:54.280Z,97204.41
2022-11-21T21:41:23.434Z,97191.00
2022-11-21T21:43:54.099Z,97193.69
2022-11-21T21:46:25.609Z,97197.19
2022-11-21T21:48:56.009Z,97201.72
2022-11-21T21:51:25.743Z,97194.72
2022-11-21T21:53:54.914Z,97196.38
2022-11-21T21:56:24.620Z,97198.22
2022-11-21T21:58:54.645Z,97188.31
2022-11-21T22:01:24.031Z,97189.34
2022-11-21T22:03:54.357Z,97184.78
2022-11-21T22:06:22.950Z,97173.22
2022-11-21T22:08:51.683Z,97183.97
2022-11-21T22:11:21.439Z,97170.72
2022-11-21T22:13:54.258Z,97180.44
2022-11-21T22:16:22.852Z,97167.88
2022-11-21T22:18:51.309Z,97167.00
2022-11-21T22:21:21.228Z,97160.81
2022-11-21T22:24:23.511Z,97157.94
2022-11-21T22:26:38.478Z,97152.16
2022-11-21T22:29:08.363Z,97160.81
2022-11-21T22:31:37.528Z,97156.25
2022-11-21T22:34:06.412Z,97155.44
2022-11-21T22:36:34.906Z,97157.31
2022-11-21T22:39:03.403Z,97147.38
2022-11-21T22:41:31.989Z,97143.88
2022-11-21T22:44:01.003Z,97149.47
2022-11-21T22:46:31.695Z,97137.69
2022-11-21T22:49:00.567Z,97140.38
2022-11-21T22:51:30.403Z,97141.19
2022-11-21T22:53:58.929Z,97142.25
2022-11-21T22:56:28.172Z,97142.25
2022-11-21T22:58:57.162Z,97147.59
2022-11-21T23:01:26.997Z,97144.94
2022-11-21T23:03:56.927Z,97143.25
2022-11-21T23:06:26.797Z,97149.47
2022-11-21T23:08:56.035Z,97151.31
2022-11-21T23:11:26.308Z,97143.25
2022-11-21T23:13:55.461Z,97142.44
2022-11-21T23:16:24.504Z,97145.13
2022-11-21T23:18:53.864Z,97151.31
2022-11-21T23:21:23.976Z,97144.28
2022-11-21T23:23:52.427Z,97146.97
2022-11-21T23:26:21.275Z,97147.16
2022-11-21T23:28:49.700Z,97152.53
2022-11-21T23:31:18.307Z,97148.03
2022-11-21T23:33:47.003Z,97151.53
2022-11-21T23:36:15.412Z,97147.16
2022-11-21T23:38:46.280Z,97148.03
2022-11-21T23:41:14.728Z,97134.59
2022-11-21T23:43:43.284Z,97132.91
2022-11-21T23:46:11.807Z,97134.78
2022-11-21T23:48:40.353Z,97140.97
2022-11-21T23:51:08.810Z,97138.28
2022-11-21T23:53:40.160Z,97141.19
2022-11-21T23:56:10.174Z,97132.50
2022-11-21T23:58:39.501Z,97138.06
